createdAt,value
2023-02-22T00:01:34.228Z,13.20
2023-02-22T00:04:06.517Z,11.60
2023-02-22T00:06:33.606Z,14.97
2023-02-22T00:09:02.348Z,11.80
2023-02-22T00:11:29.337Z,11.97
2023-02-22T00:13:58.878Z,13.00
2023-02-22T00:16:26.532Z,15.90
2023-02-22T00:18:53.831Z,18.13
2023-02-22T00:21:21.124Z,14.90
2023-02-22T00:23:48.756Z,12.03
2023-02-22T00:26:18.280Z,15.93
2023-02-22T00:28:48.622Z,13.77
2023-02-22T00:31:15.872Z,13.23
2023-02-22T00:33:43.204Z,23.20
2023-02-22T00:36:11.870Z,15.27
2023-02-22T00:38:39.559Z,13.80
2023-02-22T00:41:07.151Z,13.60
2023-02-22T00:43:34.178Z,16.07
2023-02-22T00:46:01.234Z,13.17
2023-02-22T00:48:28.446Z,16.23
2023-02-22T00:50:55.268Z,20.23
2023-02-22T00:53:24.470Z,12.27
2023-02-22T00:55:51.643Z,20.63
2023-02-22T00:58:18.708Z,15.00
2023-02-22T01:00:46.406Z,17.67
2023-02-22T01:03:17.474Z,16.37
2023-02-22T01:05:44.853Z,15.37
2023-02-22T01:08:13.464Z,16.17
2023-02-22T01:10:40.674Z,12.37
2023-02-22T01:13:09.438Z,14.50
2023-02-22T01:15:38.820Z,16.47
2023-02-22T01:18:06.384Z,19.43
2023-02-22T01:20:33.391Z,15.20
2023-02-22T01:23:03.553Z,17.40
2023-02-22T01:25:31.513Z,20.13
2023-02-22T01:28:00.688Z,13.87
2023-02-22T01:30:30.587Z,13.30
2023-02-22T01:32:58.002Z,15.23
2023-02-22T01:35:29.700Z,13.77
2023-02-22T01:37:58.046Z,14.00
2023-02-22T01:40:29.644Z,14.13
2023-02-22T01:43:03.010Z,16.00
2023-02-22T01:45:29.964Z,16.60
2023-02-22T01:48:06.238Z,15.70
2023-02-22T01:50:39.448Z,18.87
2023-02-22T01:53:08.000Z,16.57
2023-02-22T01:55:35.765Z,13.23
2023-02-22T01:58:04.768Z,15.13
2023-02-22T02:00:32.202Z,14.63
2023-02-22T02:03:10.475Z,15.97
2023-02-22T02:05:38.947Z,16.13
2023-02-22T02:08:16.624Z,13.00
2023-02-22T02:10:44.280Z,16.53
2023-02-22T02:13:11.309Z,14.23
2023-02-22T02:15:57.873Z,17.37
2023-02-22T02:18:27.248Z,13.73
2023-02-22T02:21:12.751Z,12.33
2023-02-22T02:23:51.572Z,13.07
2023-02-22T02:27:03.370Z,11.83
2023-02-22T02:29:55.352Z,16.73
2023-02-22T02:32:40.992Z,13.27
2023-02-22T02:35:31.472Z,12.33
2023-02-22T02:37:58.019Z,16.73
2023-02-22T02:40:36.224Z,12.27
2023-02-22T02:43:24.274Z,11.40
2023-02-22T02:46:08.872Z,13.80
2023-02-22T02:48:39.218Z,11.37
2023-02-22T02:51:09.549Z,20.17
2023-02-22T02:53:40.512Z,13.27
2023-02-22T02:56:07.618Z,13.40
2023-02-22T02:58:34.463Z,11.67
2023-02-22T03:01:05.513Z,11.70
2023-02-22T03:03:52.428Z,16.70
2023-02-22T03:06:34.506Z,11.97
2023-02-22T03:09:13.744Z,15.87
2023-02-22T03:12:14.717Z,10.57
2023-02-22T03:15:05.471Z,13.90
2023-02-22T03:17:47.833Z,10.80
2023-02-22T03:20:32.849Z,12.43
2023-02-22T03:23:21.028Z,11.30
2023-02-22T03:26:03.152Z,11.50
2023-02-22T03:28:32.884Z,12.43
2023-02-22T03:31:10.925Z,14.27
2023-02-22T03:33:55.379Z,10.20
2023-02-22T03:36:24.902Z,16.07
2023-02-22T03:38:57.393Z,14.23
2023-02-22T03:41:26.706Z,19.83
2023-02-22T03:44:04.477Z,14.00
2023-02-22T03:46:32.819Z,12.67
2023-02-22T03:49:09.361Z,14.93
2023-02-22T03:51:39.610Z,11.73
2023-02-22T03:54:07.539Z,14.23
2023-02-22T03:56:47.092Z,12.73
2023-02-22T03:59:14.709Z,10.63
2023-02-22T04:01:42.068Z,18.20
2023-02-22T04:04:08.651Z,14.13
2023-02-22T04:06:37.816Z,13.33
2023-02-22T04:09:04.500Z,11.37
2023-02-22T04:11:31.273Z,14.87
2023-02-22T04:13:58.317Z,11.53
2023-02-22T04:16:25.171Z,11.03
2023-02-22T04:18:52.064Z,13.70
2023-02-22T04:21:19.745Z,13.40
2023-02-22T04:23:49.156Z,15.33
2023-02-22T04:26:16.743Z,11.10
2023-02-22T04:28:48.384Z,10.17
2023-02-22T04:31:18.543Z,14.83
2023-02-22T04:33:45.522Z,11.37
2023-02-22T04:36:16.139Z,12.10
2023-02-22T04:38:44.366Z,17.80
2023-02-22T04:41:11.372Z,15.17
2023-02-22T04:43:38.089Z,15.40
2023-02-22T04:46:31.433Z,15.50
2023-02-22T04:48:58.256Z,15.10
2023-02-22T04:51:28.145Z,15.63
2023-02-22T04:54:04.734Z,20.37
2023-02-22T04:56:33.912Z,15.40
2023-02-22T04:59:00.611Z,14.93
2023-02-22T05:01:31.803Z,16.10
2023-02-22T05:03:58.415Z,12.80
2023-02-22T05:06:25.092Z,15.33
2023-02-22T05:08:51.704Z,18.97
2023-02-22T05:11:18.684Z,15.83
2023-02-22T05:13:45.586Z,16.30
2023-02-22T05:16:12.552Z,15.73
2023-02-22T05:18:39.304Z,18.30
2023-02-22T05:21:06.872Z,14.63
2023-02-22T05:23:33.900Z,19.77
2023-02-22T05:26:01.131Z,21.20
2023-02-22T05:28:27.819Z,18.93
2023-02-22T05:30:54.457Z,14.50
2023-02-22T05:33:21.220Z,17.23
2023-02-22T05:35:47.898Z,17.50
2023-02-22T05:38:15.276Z,12.23
2023-02-22T05:40:43.294Z,13.57
2023-02-22T05:43:10.023Z,16.70
2023-02-22T05:45:36.664Z,13.67
2023-02-22T05:48:03.840Z,14.90
2023-02-22T05:50:30.527Z,13.57
2023-02-22T05:52:57.244Z,15.63
2023-02-22T05:55:24.780Z,15.03
2023-02-22T05:57:52.338Z,16.00
2023-02-22T06:00:24.945Z,12.63
2023-02-22T06:02:56.611Z,16.53
2023-02-22T06:05:23.364Z,14.07
2023-02-22T06:07:50.140Z,10.03
2023-02-22T06:10:16.992Z,14.93
2023-02-22T06:12:44.352Z,13.43
2023-02-22T06:15:11.029Z,12.80
2023-02-22T06:17:39.430Z,14.60
2023-02-22T06:20:08.017Z,15.97
2023-02-22T06:22:34.676Z,14.90
2023-02-22T06:25:03.472Z,12.63
2023-02-22T06:27:33.994Z,13.17
2023-02-22T06:30:01.548Z,11.83
2023-02-22T06:32:31.430Z,16.93
2023-02-22T06:34:58.262Z,14.20
2023-02-22T06:37:25.154Z,12.80
2023-02-22T06:39:51.742Z,13.20
2023-02-22T06:42:18.467Z,12.67
2023-02-22T06:44:45.122Z,11.87
2023-02-22T06:47:11.793Z,11.53
2023-02-22T06:49:38.496Z,13.17
2023-02-22T06:52:06.570Z,11.10
2023-02-22T06:54:33.302Z,14.07
2023-02-22T06:57:00.099Z,10.33
2023-02-22T06:59:27.935Z,12.80
2023-02-22T07:01:54.809Z,11.20
2023-02-22T07:04:21.462Z,11.00
2023-02-22T07:06:49.918Z,13.93
2023-02-22T07:09:18.363Z,10.00
2023-02-22T07:11:44.967Z,14.90
2023-02-22T07:14:11.658Z,13.73
2023-02-22T07:16:38.358Z,13.37
2023-02-22T07:19:05.237Z,16.87
2023-02-22T07:21:31.840Z,15.83
2023-02-22T07:24:01.244Z,20.70
2023-02-22T07:26:27.965Z,15.43
2023-02-22T07:28:55.086Z,19.77
2023-02-22T07:31:21.802Z,12.07
2023-02-22T07:33:49.273Z,17.03
2023-02-22T07:36:17.860Z,14.93
2023-02-22T07:38:45.557Z,15.97
2023-02-22T07:41:12.855Z,17.43
2023-02-22T07:43:39.509Z,12.23
2023-02-22T07:46:06.320Z,11.33
2023-02-22T07:48:33.065Z,16.17
2023-02-22T07:51:00.044Z,11.67
2023-02-22T07:53:33.122Z,14.00
2023-02-22T07:56:02.436Z,13.40
2023-02-22T07:58:30.711Z,13.87
2023-02-22T08:00:58.223Z,15.63
2023-02-22T08:03:26.441Z,16.87
2023-02-22T08:05:55.871Z,19.87
2023-02-22T08:08:23.153Z,16.63
2023-02-22T08:10:50.618Z,11.27
2023-02-22T08:13:18.669Z,15.27
2023-02-22T08:15:47.010Z,16.63
2023-02-22T08:18:16.591Z,13.50
2023-02-22T08:20:45.272Z,12.00
2023-02-22T08:23:14.088Z,17.30
2023-02-22T08:25:41.647Z,10.50
2023-02-22T08:28:11.595Z,13.10
2023-02-22T08:30:40.637Z,14.60
2023-02-22T08:33:07.662Z,11.53
2023-02-22T08:35:34.492Z,17.10
2023-02-22T08:38:04.252Z,12.30
2023-02-22T08:40:33.906Z,11.57
2023-02-22T08:43:01.713Z,10.10
2023-02-22T08:45:29.154Z,14.90
2023-02-22T08:47:55.907Z,12.97
2023-02-22T08:50:26.386Z,12.57
2023-02-22T08:52:58.623Z,10.80
2023-02-22T08:55:33.939Z,13.63
2023-02-22T08:58:02.850Z,14.57
2023-02-22T09:00:32.954Z,12.97
2023-02-22T09:03:03.463Z,13.70
2023-02-22T09:05:31.547Z,13.00
2023-02-22T09:07:59.256Z,9.97
2023-02-22T09:10:28.837Z,11.93
2023-02-22T09:12:57.348Z,13.37
2023-02-22T09:15:25.217Z,12.07
2023-02-22T09:17:52.850Z,16.00
2023-02-22T09:20:21.944Z,13.33
2023-02-22T09:22:49.497Z,29.23
2023-02-22T09:25:18.167Z,49.57
2023-02-22T09:27:47.962Z,10.80
2023-02-22T09:30:25.400Z,25.67
2023-02-22T09:32:54.539Z,16.57
2023-02-22T09:35:26.961Z,14.97
2023-02-22T09:37:59.977Z,13.73
2023-02-22T09:40:32.387Z,14.30
2023-02-22T09:43:21.341Z,18.60
2023-02-22T09:46:20.705Z,21.17
2023-02-22T09:49:00.816Z,26.43
2023-02-22T09:51:35.647Z,20.47
2023-02-22T09:54:05.047Z,17.93
2023-02-22T09:56:33.814Z,14.43
2023-02-22T09:59:04.018Z,18.73
2023-02-22T10:01:48.650Z,15.47
2023-02-22T10:04:24.704Z,10.20
2023-02-22T10:07:11.488Z,9.00
2023-02-22T10:09:42.732Z,9.60
2023-02-22T10:12:35.795Z,12.60
2023-02-22T10:15:37.772Z,17.17
2023-02-22T10:18:22.325Z,12.40
2023-02-22T10:21:07.607Z,18.37
2023-02-22T10:24:24.721Z,10.53
2023-02-22T10:26:54.229Z,13.07
2023-02-22T10:29:49.058Z,10.33
2023-02-22T10:32:21.802Z,12.57
2023-02-22T10:34:53.332Z,15.60
2023-02-22T10:37:27.451Z,19.43
2023-02-22T10:40:05.269Z,25.70
2023-02-22T10:42:32.029Z,17.43
2023-02-22T10:44:58.814Z,13.23
2023-02-22T10:47:25.578Z,14.67
2023-02-22T10:49:57.226Z,12.07
2023-02-22T10:52:26.019Z,36.93
2023-02-22T10:55:12.550Z,23.80
2023-02-22T10:57:44.261Z,23.23
2023-02-22T11:00:26.294Z,14.33
2023-02-22T11:03:05.859Z,13.97
2023-02-22T11:05:42.319Z,13.60
2023-02-22T11:08:21.233Z,13.40
2023-02-22T11:10:53.901Z,13.30
2023-02-22T11:13:37.691Z,15.73
2023-02-22T11:16:21.322Z,16.17
2023-02-22T11:18:48.792Z,16.03
2023-02-22T11:21:22.669Z,15.93
2023-02-22T11:23:50.363Z,25.33
2023-02-22T11:26:20.543Z,14.87
2023-02-22T11:28:50.303Z,16.30
2023-02-22T11:31:23.056Z,12.33
2023-02-22T11:36:33.745Z,11.30
2023-02-22T11:39:00.963Z,11.63
2023-02-22T11:41:30.285Z,11.33
2023-02-22T11:44:23.742Z,13.20
2023-02-22T11:46:51.832Z,14.03
2023-02-22T11:49:18.668Z,12.83
2023-02-22T11:52:08.686Z,13.17
2023-02-22T11:54:42.088Z,14.57
2023-02-22T11:57:37.706Z,12.07
2023-02-22T12:00:27.506Z,11.83
2023-02-22T12:03:34.792Z,8.93
2023-02-22T12:06:19.439Z,12.07
2023-02-22T12:09:21.766Z,14.00
2023-02-22T12:12:11.783Z,12.63
2023-02-22T12:15:05.713Z,12.20
2023-02-22T12:17:54.303Z,25.43
2023-02-22T12:20:31.907Z,16.60
2023-02-22T12:23:16.702Z,19.53
2023-02-22T12:26:05.254Z,21.57
2023-02-22T12:28:51.505Z,17.83
2023-02-22T12:31:29.255Z,14.10
2023-02-22T12:34:11.792Z,14.50
2023-02-22T12:36:46.623Z,11.77
2023-02-22T12:39:53.163Z,68.47
2023-02-22T12:42:30.070Z,18.87
2023-02-22T12:45:08.353Z,15.73
2023-02-22T12:47:53.342Z,13.40
2023-02-22T12:50:23.348Z,13.07
2023-02-22T12:52:55.548Z,16.17
2023-02-22T12:55:26.338Z,18.63
2023-02-22T12:58:09.992Z,14.40
2023-02-22T13:00:50.983Z,14.97
2023-02-22T13:03:30.628Z,12.43
2023-02-22T13:06:04.346Z,13.47
2023-02-22T13:08:41.429Z,14.00
2023-02-22T13:11:29.255Z,72.67
2023-02-22T13:14:08.240Z,28.20
2023-02-22T13:16:42.860Z,16.57
2023-02-22T13:20:08.645Z,19.50
2023-02-22T13:22:47.785Z,16.17
2023-02-22T13:25:25.573Z,14.87
2023-02-22T13:28:18.141Z,18.83
2023-02-22T13:31:00.003Z,15.93
2023-02-22T13:33:43.887Z,22.90
2023-02-22T13:36:25.605Z,14.67
2023-02-22T13:39:28.417Z,14.13
2023-02-22T13:42:10.672Z,13.07
2023-02-22T13:44:59.710Z,20.87
2023-02-22T13:48:07.795Z,16.43
2023-02-22T13:50:52.037Z,15.63
2023-02-22T13:53:25.196Z,14.53
2023-02-22T13:55:59.549Z,14.87
2023-02-22T13:58:27.250Z,17.70
2023-02-22T14:00:59.072Z,12.13
2023-02-22T14:03:36.232Z,15.70
2023-02-22T14:06:05.021Z,15.80
2023-02-22T14:08:33.648Z,16.63
2023-02-22T14:11:02.441Z,16.17
2023-02-22T14:13:53.643Z,17.03
2023-02-22T14:16:24.296Z,15.67
2023-02-22T14:19:03.195Z,10.63
2023-02-22T14:21:29.911Z,17.90
2023-02-22T14:24:06.949Z,13.37
2023-02-22T14:26:41.157Z,16.37
2023-02-22T14:29:08.190Z,13.10
2023-02-22T14:31:41.002Z,14.27
2023-02-22T14:34:16.098Z,16.77
2023-02-22T14:37:12.050Z,16.77
2023-02-22T14:39:46.505Z,11.67
2023-02-22T14:42:22.439Z,19.00
2023-02-22T14:45:09.464Z,16.50
2023-02-22T14:47:43.827Z,15.43
2023-02-22T14:50:23.119Z,13.43
2023-02-22T14:53:03.016Z,14.13
2023-02-22T14:55:33.707Z,11.43
2023-02-22T14:58:08.615Z,12.27
2023-02-22T15:00:46.098Z,14.40
2023-02-22T15:03:37.724Z,15.70
2023-02-22T15:06:15.735Z,12.37
2023-02-22T15:08:48.494Z,10.97
2023-02-22T15:11:24.656Z,10.60
2023-02-22T15:13:55.050Z,16.07
2023-02-22T15:16:23.410Z,12.50
2023-02-22T15:18:53.627Z,13.70
2023-02-22T15:21:23.679Z,54.17
2023-02-22T15:23:54.441Z,25.67
2023-02-22T15:26:38.827Z,15.03
2023-02-22T15:29:15.131Z,19.00
2023-02-22T15:31:48.296Z,15.53
2023-02-22T15:34:15.471Z,16.27
2023-02-22T15:36:44.044Z,15.33
2023-02-22T15:39:29.400Z,26.57
2023-02-22T15:42:19.170Z,19.07
2023-02-22T15:44:48.569Z,13.27
2023-02-22T15:47:21.760Z,12.73
2023-02-22T15:50:23.275Z,13.63
2023-02-22T15:53:08.476Z,12.83
2023-02-22T15:55:47.171Z,17.60
2023-02-22T15:58:16.894Z,13.23
2023-02-22T16:00:46.804Z,12.00
2023-02-22T16:03:16.428Z,14.20
2023-02-22T16:05:50.724Z,16.00
2023-02-22T16:08:20.483Z,10.47
2023-02-22T16:10:58.430Z,15.93
2023-02-22T16:13:32.439Z,13.83
2023-02-22T16:16:23.840Z,15.00
2023-02-22T16:18:52.048Z,14.10
2023-02-22T16:21:21.587Z,12.37
2023-02-22T16:23:56.000Z,13.03
2023-02-22T16:26:31.744Z,15.93
2023-02-22T16:29:01.028Z,12.37
2023-02-22T16:31:31.906Z,11.20
2023-02-22T16:33:58.874Z,14.10
2023-02-22T16:36:38.976Z,20.37
2023-02-22T16:39:14.500Z,16.77
2023-02-22T16:41:41.183Z,19.63
2023-02-22T16:44:08.429Z,13.80
2023-02-22T16:46:35.447Z,12.37
2023-02-22T16:49:03.313Z,15.47
2023-02-22T16:51:39.640Z,14.63
2023-02-22T16:54:11.576Z,21.17
2023-02-22T16:56:40.359Z,14.40
2023-02-22T16:59:15.402Z,13.90
2023-02-22T17:01:42.423Z,15.37
2023-02-22T17:04:17.966Z,17.00
2023-02-22T17:06:44.740Z,12.00
2023-02-22T17:09:11.658Z,13.13
2023-02-22T17:11:38.735Z,13.33
2023-02-22T17:14:05.698Z,10.50
2023-02-22T17:16:32.255Z,12.17
2023-02-22T17:18:59.126Z,12.77
2023-02-22T17:21:25.711Z,11.70
2023-02-22T17:23:52.480Z,12.87
2023-02-22T17:26:19.465Z,11.20
2023-02-22T17:28:46.179Z,10.20
2023-02-22T17:31:22.795Z,14.33
2023-02-22T17:33:51.274Z,11.80
2023-02-22T17:36:18.913Z,12.50
2023-02-22T17:38:45.829Z,13.10
2023-02-22T17:41:12.613Z,16.07
2023-02-22T17:43:39.489Z,14.10
2023-02-22T17:46:10.217Z,13.63
2023-02-22T17:48:37.093Z,11.37
2023-02-22T17:51:09.556Z,16.07
2023-02-22T17:53:37.184Z,17.00
2023-02-22T17:56:08.905Z,20.47
2023-02-22T17:58:36.274Z,18.37
2023-02-22T18:01:04.137Z,19.13
2023-02-22T18:03:31.143Z,17.67
2023-02-22T18:06:00.417Z,15.33
2023-02-22T18:08:31.052Z,14.47
2023-02-22T18:10:58.017Z,16.83
2023-02-22T18:13:27.382Z,20.60
2023-02-22T18:15:59.844Z,19.10
2023-02-22T18:18:27.363Z,15.20
2023-02-22T18:20:59.252Z,16.87
2023-02-22T18:23:27.896Z,16.23
2023-02-22T18:26:09.780Z,24.20
2023-02-22T18:28:41.177Z,18.97
2023-02-22T18:31:09.900Z,15.83
2023-02-22T18:33:36.808Z,18.57
2023-02-22T18:36:04.567Z,18.23
2023-02-22T18:38:31.930Z,19.73
2023-02-22T18:41:03.467Z,20.00
2023-02-22T18:43:31.786Z,23.83
2023-02-22T18:46:25.219Z,18.70
2023-02-22T18:48:56.359Z,19.03
2023-02-22T18:51:24.408Z,20.23
2023-02-22T18:53:56.760Z,20.00
2023-02-22T18:56:24.809Z,22.77
2023-02-22T18:58:56.807Z,17.50
2023-02-22T19:01:23.605Z,22.70
2023-02-22T19:03:51.639Z,22.43
2023-02-22T19:06:21.775Z,23.70
2023-02-22T19:08:50.509Z,23.43
2023-02-22T19:11:22.714Z,24.97
2023-02-22T19:13:52.014Z,24.20
2023-02-22T19:16:22.133Z,26.70
2023-02-22T19:18:52.267Z,23.47
2023-02-22T19:21:20.081Z,20.07
2023-02-22T19:23:48.029Z,22.20
2023-02-22T19:26:25.865Z,27.43
2023-02-22T19:28:55.484Z,21.10
2023-02-22T19:31:31.209Z,19.33
2023-02-22T19:34:08.983Z,21.40
2023-02-22T19:36:38.874Z,26.33
2023-02-22T19:39:05.710Z,22.27
2023-02-22T19:41:32.455Z,21.97
2023-02-22T19:43:59.621Z,18.43
2023-02-22T19:46:26.498Z,23.80
2023-02-22T19:48:55.273Z,25.10
2023-02-22T19:51:26.038Z,25.73
2023-02-22T19:53:54.281Z,22.93
2023-02-22T19:56:27.090Z,24.67
2023-02-22T19:58:57.020Z,23.67
2023-02-22T20:01:27.227Z,31.33
2023-02-22T20:03:59.650Z,29.67
2023-02-22T20:06:40.078Z,28.47
2023-02-22T20:09:09.104Z,29.00
2023-02-22T20:11:42.353Z,35.70
2023-02-22T20:14:16.605Z,35.67
2023-02-22T20:16:43.480Z,25.07
2023-02-22T20:19:10.378Z,29.47
2023-02-22T20:21:37.506Z,33.17
2023-02-22T20:24:07.827Z,26.23
2023-02-22T20:26:36.833Z,34.10
2023-02-22T20:29:05.371Z,27.60
2023-02-22T20:31:33.242Z,31.60
2023-02-22T20:34:00.695Z,27.80
2023-02-22T20:36:29.378Z,30.00
2023-02-22T20:39:00.248Z,29.13
2023-02-22T20:41:32.864Z,33.13
2023-02-22T20:44:01.368Z,34.93
2023-02-22T20:46:31.455Z,30.53
2023-02-22T20:49:00.126Z,26.77
2023-02-22T20:51:28.063Z,31.93
2023-02-22T20:53:57.148Z,25.27
2023-02-22T20:56:24.514Z,28.97
2023-02-22T20:58:51.275Z,28.97
2023-02-22T21:01:20.469Z,27.73
2023-02-22T21:03:48.124Z,26.67
2023-02-22T21:06:16.608Z,32.33
2023-02-22T21:08:45.695Z,26.73
2023-02-22T21:11:15.466Z,35.07
2023-02-22T21:13:42.430Z,28.90
2023-02-22T21:16:15.350Z,28.83
2023-02-22T21:18:42.224Z,30.27
2023-02-22T21:21:11.146Z,28.77
2023-02-22T21:23:38.979Z,30.57
2023-02-22T21:26:07.255Z,27.30
2023-02-22T21:28:50.404Z,23.60
2023-02-22T21:31:20.842Z,28.00
2023-02-22T21:33:53.442Z,26.10
2023-02-22T21:36:24.849Z,28.93
2023-02-22T21:38:58.053Z,25.37
2023-02-22T21:41:30.844Z,26.47
2023-02-22T21:43:59.314Z,28.87
2023-02-22T21:46:28.875Z,35.93
2023-02-22T21:48:58.512Z,25.67
2023-02-22T21:51:31.931Z,29.33
2023-02-22T21:54:01.067Z,36.27
2023-02-22T21:56:28.921Z,29.40
2023-02-22T21:59:05.450Z,28.07
2023-02-22T22:01:35.115Z,30.97
2023-02-22T22:04:03.359Z,25.83
2023-02-22T22:06:32.769Z,25.53
2023-02-22T22:09:05.212Z,30.63
2023-02-22T22:11:31.821Z,29.93
2023-02-22T22:13:59.698Z,33.67
2023-02-22T22:16:29.819Z,32.50
2023-02-22T22:18:57.334Z,30.93
2023-02-22T22:21:24.472Z,35.43
2023-02-22T22:23:56.585Z,37.50
2023-02-22T22:26:25.238Z,33.20
2023-02-22T22:28:55.956Z,26.30
2023-02-22T22:31:24.706Z,28.13
2023-02-22T22:33:52.068Z,28.80
2023-02-22T22:36:21.504Z,31.83
2023-02-22T22:38:48.548Z,30.58
2023-02-22T22:41:19.281Z,27.80
2023-02-22T22:43:46.620Z,23.67
2023-02-22T22:46:16.513Z,28.80
2023-02-22T22:48:46.893Z,28.87
2023-02-22T22:51:18.230Z,28.67
2023-02-22T22:53:47.245Z,30.20
2023-02-22T22:56:20.540Z,25.87
2023-02-22T22:58:53.801Z,30.73
2023-02-22T23:01:27.222Z,26.77
2023-02-22T23:04:01.564Z,30.90
2023-02-22T23:06:32.792Z,34.40
2023-02-22T23:09:11.757Z,30.83
2023-02-22T23:11:44.812Z,30.83
2023-02-22T23:14:26.682Z,29.90
2023-02-22T23:17:03.148Z,25.67
2023-02-22T23:19:31.543Z,26.70
2023-02-22T23:21:59.477Z,31.20
2023-02-22T23:24:27.503Z,29.23
2023-02-22T23:26:59.788Z,26.47
2023-02-22T23:29:28.031Z,36.87
2023-02-22T23:31:54.824Z,39.30
2023-02-22T23:34:23.075Z,31.37
2023-02-22T23:36:54.183Z,29.80
2023-02-22T23:39:22.677Z,26.60
2023-02-22T23:41:50.546Z,35.60
2023-02-22T23:44:17.795Z,40.17
2023-02-22T23:46:47.863Z,41.13
2023-02-22T23:49:17.297Z,34.23
2023-02-22T23:51:44.769Z,24.97
2023-02-22T23:54:15.067Z,26.37
2023-02-22T23:56:56.311Z,27.03
2023-02-22T23:59:24.670Z,27.97
